Borough Hall, New York
Current Conditions -  °F | °C
As of 11:51 AM on Saturday 22 Nov 2014 (Local Time) from KLGA Reporting Station
Few Clouds Few Clouds  
Wind Chill: 29°   Ceiling: Unl
Heat Index: 38°   Visibility: 10mi
Dew Point: 12°   Wind: 17mph
Humidity: 35%   Direction: 230°SW
Pressure: 30.38"   Gusts: NA
Location:  40.7157°N, 73.8267°W
Report Text: KLGA 221651Z 23015KT 10SM FEW250 03/M11 A3038 RMK AO2 SLP287 T00331111
Loading
Personal Weather Stations






























Interactive Weather Map New forecast layout! Learn more

10-Day Weather Forecast

Advertisements
Track Severe Weather on mobile